Terminal Aerodrome Forecast
Issued by NWS

Home | Current Version | Previous Version | Text Only | Print | Product List | Glossary Off
Versions: 1 2 3 4 5 6 7 8 9 10 11 12 13 14

000
FTUS43 KIWX 272300
TAFSBN
TAF
KSBN 272320Z 2800/2824 11004KT P6SM BKN250
     FM281000 00000KT 3SM BR BKN250
     FM281400 VRB04KT P6SM SCT250=

USA.gov is the U.S. government's official web portal to all federal, state and local government web resources and services.